CST,Max TemperatureF,Mean TemperatureF,Min TemperatureF,Max Dew PointF,MeanDew PointF,Min DewpointF,Max Humidity, Mean Humidity, Min Humidity, Max Sea Level PressureIn, Mean Sea Level PressureIn, Min Sea Level PressureIn, Max VisibilityMiles, Mean VisibilityMiles, Min VisibilityMiles, Max Wind SpeedMPH, Mean Wind SpeedMPH, Max Gust SpeedMPH,PrecipitationIn, CloudCover, Events, WindDirDegrees
2014-1-1,-5,-15,-25,-15,-22,-31,84,72,59,30.46,30.40,30.36,10,10,7,4,0,,0.00,5,,350
2014-1-2,0,-17,-34,-17,-28,-42,84,68,43,30.45,30.37,30.18,10,10,10,7,1,,0.00,0,,171
2014-1-3,19,2,-14,18,1,-18,100,79,66,30.17,29.62,29.28,10,8,2,21,11,28,0.00,7,Snow,167
2014-1-4,19,2,-16,18,-4,-20,93,75,61,30.20,29.88,29.34,10,8,2,15,7,25,0.00,3,Snow,298
2014-1-5,-13,-22,-32,-20,-29,-38,84,69,53,30.29,30.25,30.19,10,9,3,13,4,21,0.00,1,Snow,298
2014-1-6,-16,-22,-27,-27,-31,-35,76,65,52,30.20,30.12,30.00,10,10,5,14,8,20,0.00,2,Snow,279
2014-1-7,-5,-15,-25,-15,-21,-33,84,74,60,30.19,30.06,29.97,10,10,10,9,3,,0.00,3,,277
2014-1-8,1,-15,-31,-11,-24,-36,84,71,47,30.36,30.30,30.19,10,10,5,8,1,,0.00,0,,234
2014-1-9,17,4,-9,12,3,-15,93,76,66,30.25,29.95,29.72,10,10,7,17,11,25,0.00,4,,163
2014-1-10,26,20,15,27,21,14,100,96,86,29.71,29.57,29.43,7,2,1,16,9,22,0.00,8,Snow,168
2014-1-11,28,19,10,27,21,9,100,93,80,29.58,29.51,29.41,10,7,3,10,3,,0.00,7,,277
2014-1-12,41,29,17,28,24,18,100,86,61,29.48,29.34,29.25,10,10,7,13,5,17,0.00,3,,184
2014-1-13,30,22,14,28,16,10,93,79,68,29.58,29.55,29.45,10,9,3,14,6,23,0.00,8,Snow,287
2014-1-14,15,8,1,12,4,-2,92,80,62,30.11,29.89,29.56,10,8,1,10,5,18,0.00,5,Snow,327
2014-1-15,24,4,-16,21,1,-22,93,83,67,30.10,29.70,29.23,10,9,1,17,4,25,0.00,5,Snow,185
2014-1-16,32,16,0,28,5,-6,93,77,67,29.93,29.58,29.23,10,7,1,20,9,33,0.00,7,Snow,303
2014-1-17,10,0,-11,3,-7,-15,92,75,56,30.02,29.91,29.65,10,10,1,10,5,17,0.00,1,Snow,288
2014-1-18,21,11,1,19,8,-2,93,79,58,29.87,29.71,29.50,10,8,1,12,5,20,0.00,5,Snow,196
2014-1-19,28,20,12,25,20,10,100,86,68,29.70,29.51,29.43,10,9,1,13,6,21,0.00,6,Snow,287
2014-1-20,15,0,-16,12,-10,-24,92,67,42,30.42,30.12,29.71,10,9,2,10,5,17,0.00,3,Snow,349
2014-1-21,-2,-16,-29,-6,-18,-36,85,74,65,30.41,30.16,29.90,10,7,1,12,4,,0.00,5,Snow,190
2014-1-22,1,-8,-16,-2,-14,-24,85,71,55,30.49,30.15,29.89,10,8,2,14,7,26,0.00,3,Snow,315
2014-1-23,5,-8,-22,-4,-19,-27,77,70,55,30.61,30.42,29.86,10,8,2,13,6,21,0.00,3,Snow,238
2014-1-24,26,16,5,25,14,-8,100,80,44,29.83,29.56,29.41,10,7,1,15,9,28,0.00,7,Snow,264
2014-1-25,3,-2,-7,-4,-12,-18,85,60,39,29.84,29.71,29.47,10,9,1,14,9,26,0.00,2,Snow,297
2014-1-26,5,-6,-16,1,-8,-24,92,77,61,30.02,29.55,29.29,10,4,0,16,6,30,0.00,7,Snow,295
2014-1-27,-7,-16,-25,-22,-26,-31,76,66,49,30.29,30.22,30.04,10,10,5,14,9,23,0.00,0,,287
2014-1-28,-2,-18,-34,-13,-24,-42,77,66,50,30.24,30.09,29.90,10,10,10,13,4,20,0.00,2,,239
2014-1-29,24,0,-23,10,-4,-29,84,66,39,29.90,29.64,29.45,10,10,10,14,6,21,0.00,2,,217
2014-1-30,12,-3,-18,7,-8,-24,84,68,55,29.93,29.72,29.53,10,10,5,14,5,22,0.00,3,,306
2014-1-31,8,-8,-23,0,-13,-29,85,72,52,29.97,29.92,29.85,10,10,10,12,3,17,0.00,1,,206